createdAt,value
2019-01-21T00:01:14.174Z,-2.89
2019-01-21T00:04:02.478Z,-2.89
2019-01-21T00:06:51.284Z,-2.79
2019-01-21T00:09:40.172Z,-2.66
2019-01-21T00:12:28.907Z,-2.66
2019-01-21T00:15:17.685Z,-2.66
2019-01-21T00:18:08.077Z,-2.47
2019-01-21T00:20:56.744Z,-2.45
2019-01-21T00:23:44.856Z,-2.53
2019-01-21T00:26:33.339Z,-2.57
2019-01-21T00:29:22.649Z,-2.59
2019-01-21T00:32:11.397Z,-2.50
2019-01-21T00:35:00.058Z,-2.61
2019-01-21T00:37:48.531Z,-2.61
2019-01-21T00:40:37.580Z,-2.77
2019-01-21T00:43:26.147Z,-2.94
2019-01-21T00:46:15.287Z,-2.66
2019-01-21T00:49:03.746Z,-2.63
2019-01-21T00:51:55.953Z,-2.45
2019-01-21T00:54:44.535Z,-2.50
2019-01-21T00:57:33.350Z,-2.50
2019-01-21T01:00:25.103Z,-2.60
2019-01-21T01:03:19.318Z,-2.53
2019-01-21T01:06:09.356Z,-2.57
2019-01-21T01:08:58.740Z,-2.46
2019-01-21T01:11:49.954Z,-2.46
2019-01-21T01:14:38.562Z,-2.47
2019-01-21T01:17:26.891Z,-2.37
2019-01-21T01:20:21.420Z,-2.34
2019-01-21T01:23:10.402Z,-2.27
2019-01-21T01:25:59.434Z,-2.29
2019-01-21T01:28:48.712Z,-2.44
2019-01-21T01:31:37.161Z,-2.32
2019-01-21T01:34:25.379Z,-2.37
2019-01-21T01:37:13.521Z,-2.33
2019-01-21T01:40:02.242Z,-2.21
2019-01-21T01:42:51.323Z,-2.39
2019-01-21T01:45:40.004Z,-2.36
2019-01-21T01:48:29.170Z,-2.26
2019-01-21T01:51:17.885Z,-2.29
2019-01-21T01:54:06.613Z,-2.29
2019-01-21T01:56:56.138Z,-2.45
2019-01-21T01:59:45.067Z,-2.45
2019-01-21T02:02:33.845Z,-2.44
2019-01-21T02:05:23.930Z,-2.52
2019-01-21T02:08:12.873Z,-2.63
2019-01-21T02:11:02.932Z,-2.42
2019-01-21T02:13:51.279Z,-2.46
2019-01-21T02:16:39.837Z,-2.46
2019-01-21T02:19:29.768Z,-2.33
2019-01-21T02:22:21.364Z,-2.60
2019-01-21T02:25:10.729Z,-2.47
2019-01-21T02:28:18.219Z,-2.45
2019-01-21T02:31:46.632Z,-2.51
2019-01-21T02:35:14.008Z,-2.51
2019-01-21T02:38:39.931Z,-2.56
2019-01-21T02:41:55.498Z,-3.01
2019-01-21T02:45:20.624Z,-3.01
2019-01-21T02:48:42.957Z,-2.99
2019-01-21T02:52:11.909Z,-2.85
2019-01-21T02:55:13.540Z,-2.77
2019-01-21T02:58:15.666Z,-2.86
2019-01-21T03:01:27.972Z,-2.63
2019-01-21T03:04:41.896Z,-2.69
2019-01-21T03:07:52.390Z,-2.69
2019-01-21T03:10:54.952Z,-2.82
2019-01-21T03:13:58.464Z,-2.91
2019-01-21T03:17:11.277Z,-2.81
2019-01-21T03:20:52.809Z,-2.73
2019-01-21T03:24:21.971Z,-3.12
2019-01-21T03:27:47.375Z,-2.85
2019-01-21T03:30:56.788Z,-2.82
2019-01-21T03:34:31.414Z,-2.91
2019-01-21T03:37:58.296Z,-2.71
2019-01-21T03:41:01.324Z,-2.64
2019-01-21T03:44:43.089Z,-2.65
2019-01-21T03:47:46.806Z,-2.65
2019-01-21T03:51:12.129Z,-2.81
2019-01-21T03:54:11.901Z,-2.78
2019-01-21T03:57:13.605Z,-2.87
2019-01-21T04:00:29.798Z,-2.80
2019-01-21T04:03:51.071Z,-2.69
2019-01-21T04:07:17.524Z,-2.69
2019-01-21T04:10:41.918Z,-2.54
2019-01-21T04:14:02.283Z,-2.57
2019-01-21T04:17:34.877Z,-2.67
2019-01-21T04:21:25.082Z,-2.49
2019-01-21T04:24:57.805Z,-2.49
2019-01-21T04:28:32.955Z,-2.68
2019-01-21T04:31:57.653Z,-2.68
2019-01-21T04:35:26.628Z,-2.56
2019-01-21T04:38:51.661Z,-2.53
2019-01-21T04:42:05.829Z,-2.60
2019-01-21T04:45:37.119Z,-2.54
2019-01-21T04:48:59.575Z,-2.62
2019-01-21T04:52:20.995Z,-2.63
2019-01-21T04:55:39.528Z,-2.63
2019-01-21T04:58:57.059Z,-2.64
2019-01-21T05:02:39.941Z,-2.59
2019-01-21T05:05:51.414Z,-2.80
2019-01-21T05:09:14.616Z,-2.64
2019-01-21T05:12:39.002Z,-2.64
2019-01-21T05:15:59.463Z,-2.93
2019-01-21T05:19:31.137Z,-2.98
2019-01-21T05:22:40.931Z,-3.02
2019-01-21T05:25:41.806Z,-2.93
2019-01-21T05:29:05.938Z,-2.81
2019-01-21T05:32:42.291Z,-2.95
2019-01-21T05:36:16.745Z,-2.88
2019-01-21T05:39:39.362Z,-2.65
2019-01-21T05:43:10.492Z,-2.81
2019-01-21T05:46:37.967Z,-2.74
2019-01-21T05:50:03.318Z,-2.69
2019-01-21T05:53:37.781Z,-2.78
2019-01-21T05:57:08.129Z,-2.84
2019-01-21T06:00:55.827Z,-2.98
2019-01-21T06:04:14.744Z,-3.03
2019-01-21T06:07:44.808Z,-2.79
2019-01-21T06:10:52.624Z,-2.71
2019-01-21T06:13:54.399Z,-2.96
2019-01-21T06:17:02.388Z,-2.96
2019-01-21T06:20:13.592Z,-2.92
2019-01-21T06:23:38.524Z,-2.89
2019-01-21T06:27:04.190Z,-2.80
2019-01-21T06:30:36.299Z,-2.61
2019-01-21T06:34:09.528Z,-2.45
2019-01-21T06:37:38.629Z,-2.77
2019-01-21T06:41:04.422Z,-2.87
2019-01-21T06:44:32.538Z,-2.80
2019-01-21T06:47:51.322Z,-2.55
2019-01-21T06:51:18.734Z,-2.69
2019-01-21T06:54:30.119Z,-2.66
2019-01-21T06:57:47.015Z,-2.46
2019-01-21T07:01:15.080Z,-2.39
2019-01-21T07:04:50.443Z,-2.36
2019-01-21T07:08:14.749Z,-2.59
2019-01-21T07:11:47.506Z,-2.63
2019-01-21T07:15:20.251Z,-2.41
2019-01-21T07:18:48.778Z,-2.58
2019-01-21T07:22:21.013Z,-2.58
2019-01-21T07:26:08.274Z,-2.63
2019-01-21T07:29:22.792Z,-2.45
2019-01-21T07:33:01.136Z,-2.40
2019-01-21T07:36:22.225Z,-2.51
2019-01-21T07:39:38.343Z,-2.38
2019-01-21T07:42:48.299Z,-2.29
2019-01-21T07:45:59.048Z,-2.37
2019-01-21T07:49:21.537Z,-2.68
2019-01-21T07:53:01.603Z,-2.66
2019-01-21T07:56:05.790Z,-2.66
2019-01-21T07:59:22.105Z,-2.81
2019-01-21T08:02:37.128Z,-2.81
2019-01-21T08:05:57.179Z,-2.65
2019-01-21T08:09:05.998Z,-2.65
2019-01-21T08:12:33.382Z,-2.39
2019-01-21T08:16:02.473Z,-2.78
2019-01-21T08:19:02.265Z,-2.72
2019-01-21T08:22:26.670Z,-2.68
2019-01-21T08:25:45.115Z,-2.70
2019-01-21T08:29:18.013Z,-2.62
2019-01-21T08:32:36.871Z,-2.81
2019-01-21T08:35:33.204Z,-2.81
2019-01-21T08:39:03.068Z,-2.75
2019-01-21T08:42:24.468Z,-2.65
2019-01-21T08:45:32.430Z,-2.65
2019-01-21T08:49:01.039Z,-2.62
2019-01-21T08:52:24.441Z,-2.29
2019-01-21T08:55:57.300Z,-2.44
2019-01-21T08:59:29.990Z,-2.58
2019-01-21T09:02:52.295Z,-2.43
2019-01-21T09:06:18.662Z,-2.43
2019-01-21T09:09:35.213Z,-2.31
2019-01-21T09:12:59.249Z,-2.29
2019-01-21T09:16:06.114Z,-2.12
2019-01-21T09:19:12.513Z,-2.38
2019-01-21T09:22:07.340Z,-2.16
2019-01-21T09:25:05.263Z,-2.13
2019-01-21T09:28:13.068Z,-2.04
2019-01-21T09:31:38.999Z,-2.02
2019-01-21T09:34:47.977Z,-2.02
2019-01-21T09:38:33.472Z,-1.95
2019-01-21T09:41:59.248Z,-2.04
2019-01-21T09:45:06.239Z,-2.05
2019-01-21T09:47:53.240Z,-2.15
2019-01-21T09:50:43.662Z,-2.25
2019-01-21T09:53:32.587Z,-2.24
2019-01-21T09:56:22.800Z,-1.92
2019-01-21T09:59:12.389Z,-1.96
2019-01-21T10:02:03.686Z,-1.96
2019-01-21T10:05:01.863Z,-1.95
2019-01-21T10:08:06.274Z,-1.76
2019-01-21T10:11:25.450Z,-1.72
2019-01-21T10:14:35.299Z,-1.72
2019-01-21T10:17:54.877Z,-1.47
2019-01-21T10:21:14.778Z,-1.45
2019-01-21T10:24:27.676Z,-1.45
2019-01-21T10:27:58.284Z,-1.74
2019-01-21T10:31:39.879Z,-1.83
2019-01-21T10:35:04.649Z,-1.83
2019-01-21T10:38:29.055Z,-1.45
2019-01-21T10:41:31.873Z,-1.45
2019-01-21T10:44:52.078Z,-1.53
2019-01-21T10:48:25.999Z,-1.31
2019-01-21T10:51:31.981Z,-1.31
2019-01-21T10:54:29.209Z,-1.08
2019-01-21T10:57:48.292Z,-1.23
2019-01-21T11:01:35.892Z,-1.04
2019-01-21T11:04:47.088Z,-0.92
2019-01-21T11:07:57.603Z,-0.84
2019-01-21T11:11:09.986Z,-0.84
2019-01-21T11:14:35.366Z,-0.98
2019-01-21T11:17:41.235Z,-0.98
2019-01-21T11:21:01.221Z,-0.89
2019-01-21T11:24:30.954Z,-0.75
2019-01-21T11:28:19.420Z,-0.92
2019-01-21T11:31:58.330Z,-1.00
2019-01-21T11:35:19.121Z,-0.93
2019-01-21T11:38:34.634Z,-0.72
2019-01-21T11:41:41.020Z,-0.75
2019-01-21T11:44:56.097Z,-0.75
2019-01-21T11:48:17.982Z,-0.59
2019-01-21T11:52:18.239Z,-0.55
2019-01-21T11:55:48.218Z,-0.47
2019-01-21T11:59:02.312Z,-0.69
2019-01-21T12:02:35.002Z,-0.50
2019-01-21T12:05:37.158Z,-0.71
2019-01-21T12:09:31.077Z,-0.72
2019-01-21T12:12:39.836Z,-0.76
2019-01-21T12:15:47.298Z,-0.63
2019-01-21T12:19:00.155Z,-0.63
2019-01-21T12:22:19.061Z,-0.52
2019-01-21T12:25:20.314Z,-0.70
2019-01-21T12:28:41.247Z,-0.70
2019-01-21T12:31:42.953Z,-0.61
2019-01-21T12:35:14.615Z,-0.61
2019-01-21T12:38:23.975Z,-0.72
2019-01-21T12:41:29.275Z,-0.80
2019-01-21T12:44:53.401Z,-0.87
2019-01-21T12:47:56.808Z,-0.87
2019-01-21T12:51:08.500Z,-0.95
2019-01-21T12:54:31.258Z,-0.95
2019-01-21T12:57:45.874Z,-0.91
2019-01-21T13:01:11.724Z,-0.98
2019-01-21T13:04:12.150Z,-0.90
2019-01-21T13:07:37.636Z,-0.86
2019-01-21T13:10:54.493Z,-0.86
2019-01-21T13:14:19.126Z,-0.81
2019-01-21T13:17:54.716Z,-0.87
2019-01-21T13:21:34.844Z,-0.92
2019-01-21T13:25:13.474Z,-0.97
2019-01-21T13:28:39.580Z,-0.97
2019-01-21T13:32:22.242Z,-0.86
2019-01-21T13:35:39.417Z,-0.95
2019-01-21T13:39:28.474Z,-0.95
2019-01-21T13:42:39.877Z,-1.01
2019-01-21T13:46:09.446Z,-0.98
2019-01-21T13:49:15.444Z,-0.89
2019-01-21T13:53:09.753Z,-0.88
2019-01-21T13:56:23.976Z,-0.84
2019-01-21T13:59:48.361Z,-0.88
2019-01-21T14:03:09.498Z,-0.88
2019-01-21T14:06:54.308Z,-0.94
2019-01-21T14:10:34.321Z,-0.92
2019-01-21T14:14:13.058Z,-1.06
2019-01-21T14:17:31.883Z,-1.00
2019-01-21T14:20:43.736Z,-1.00
2019-01-21T14:23:59.839Z,-0.95
2019-01-21T14:27:04.574Z,-1.10
2019-01-21T14:30:25.773Z,-1.08
2019-01-21T14:33:34.512Z,-1.08
2019-01-21T14:37:06.029Z,-1.02
2019-01-21T14:40:09.465Z,-0.96
2019-01-21T14:43:54.822Z,-0.99
2019-01-21T14:47:19.619Z,-1.05
2019-01-21T14:50:50.486Z,-1.06
2019-01-21T14:54:21.659Z,-1.10
2019-01-21T14:57:50.534Z,-1.11
2019-01-21T15:01:19.240Z,-1.11
2019-01-21T15:04:50.581Z,-1.07
2019-01-21T15:08:08.382Z,-1.07
2019-01-21T15:11:14.480Z,-1.24
2019-01-21T15:14:30.188Z,-1.26
2019-01-21T15:18:19.197Z,-1.26
2019-01-21T15:21:36.299Z,-1.31
2019-01-21T15:25:08.986Z,-1.31
2019-01-21T15:28:42.368Z,-1.37
2019-01-21T15:32:21.561Z,-1.24
2019-01-21T15:35:53.389Z,-1.30
2019-01-21T15:39:22.354Z,-1.25
2019-01-21T15:42:37.821Z,-1.25
2019-01-21T15:45:59.627Z,-1.34
2019-01-21T15:49:13.047Z,-1.28
2019-01-21T15:52:27.227Z,-1.37
2019-01-21T15:55:44.253Z,-1.34
2019-01-21T15:58:51.351Z,-1.42
2019-01-21T16:02:19.600Z,-1.42
2019-01-21T16:05:42.800Z,-1.43
2019-01-21T16:09:10.968Z,-1.47
2019-01-21T16:12:20.419Z,-1.45
2019-01-21T16:15:24.921Z,-1.37
2019-01-21T16:18:34.732Z,-1.40
2019-01-21T16:21:39.263Z,-1.43
2019-01-21T16:25:07.581Z,-1.34
2019-01-21T16:28:40.864Z,-1.33
2019-01-21T16:31:57.307Z,-1.35
2019-01-21T16:35:19.330Z,-1.35
2019-01-21T16:38:22.199Z,-1.39
2019-01-21T16:41:51.259Z,-1.36
2019-01-21T16:44:39.712Z,-1.39
2019-01-21T16:47:28.922Z,-1.33
2019-01-21T16:50:17.369Z,-1.32
2019-01-21T16:53:06.624Z,-1.32
2019-01-21T16:55:55.812Z,-1.33
2019-01-21T16:58:44.866Z,-1.33
2019-01-21T17:01:34.863Z,-1.38
2019-01-21T17:04:24.388Z,-1.38
2019-01-21T17:07:13.505Z,-1.34
2019-01-21T17:10:01.931Z,-1.36
2019-01-21T17:12:50.671Z,-1.37
2019-01-21T17:15:39.914Z,-1.44
2019-01-21T17:18:28.920Z,-1.38
2019-01-21T17:21:18.040Z,-1.38
2019-01-21T17:24:06.239Z,-1.43
2019-01-21T17:26:54.916Z,-1.40
2019-01-21T17:29:43.578Z,-1.39
2019-01-21T17:32:32.705Z,-1.37
2019-01-21T17:35:21.990Z,-1.37
2019-01-21T17:38:10.488Z,-1.37
2019-01-21T17:40:59.218Z,-1.39
2019-01-21T17:43:48.089Z,-1.36
2019-01-21T17:46:36.952Z,-1.31
2019-01-21T17:49:25.664Z,-1.33
2019-01-21T17:52:16.529Z,-1.33
2019-01-21T17:55:05.196Z,-1.34
2019-01-21T17:57:55.309Z,-1.34
2019-01-21T18:00:44.816Z,-1.38
2019-01-21T18:03:33.678Z,-1.31
2019-01-21T18:06:22.602Z,-1.32
2019-01-21T18:09:13.934Z,-1.51
2019-01-21T18:12:04.465Z,-1.51
2019-01-21T18:14:57.123Z,-1.61
2019-01-21T18:17:46.323Z,-1.61
2019-01-21T18:20:58.678Z,-1.53
2019-01-21T18:23:55.889Z,-1.53
2019-01-21T18:26:44.392Z,-1.52
2019-01-21T18:29:33.287Z,-1.47
2019-01-21T18:32:21.913Z,-1.54
2019-01-21T18:35:12.106Z,-1.60
2019-01-21T18:38:00.886Z,-1.60
2019-01-21T18:40:54.997Z,-1.59
2019-01-21T18:43:44.097Z,-1.59
2019-01-21T18:46:35.264Z,-1.57
2019-01-21T18:49:24.698Z,-1.53
2019-01-21T18:52:14.633Z,-1.53
2019-01-21T18:55:04.098Z,-1.54
2019-01-21T18:57:56.025Z,-1.54
2019-01-21T19:00:44.570Z,-1.60
2019-01-21T19:03:34.878Z,-1.54
2019-01-21T19:06:24.447Z,-1.54
2019-01-21T19:09:14.248Z,-1.62
2019-01-21T19:12:03.716Z,-1.57
2019-01-21T19:14:52.617Z,-1.57
2019-01-21T19:17:41.092Z,-1.55
2019-01-21T19:20:31.252Z,-1.55
2019-01-21T19:23:21.082Z,-1.67
2019-01-21T19:26:09.529Z,-1.62
2019-01-21T19:29:02.193Z,-1.62
2019-01-21T19:31:52.860Z,-1.65
2019-01-21T19:34:53.339Z,-1.61
2019-01-21T19:37:42.631Z,-1.61
2019-01-21T19:40:32.171Z,-1.56
2019-01-21T19:43:21.479Z,-1.65
2019-01-21T19:46:10.551Z,-1.65
2019-01-21T19:48:58.883Z,-1.63
2019-01-21T19:51:47.861Z,-1.57
2019-01-21T19:54:35.857Z,-1.57
2019-01-21T19:57:24.376Z,-1.60
2019-01-21T20:00:16.913Z,-1.57
2019-01-21T20:03:06.461Z,-1.57
2019-01-21T20:05:55.147Z,-1.62
2019-01-21T20:08:44.985Z,-1.62
2019-01-21T20:11:35.452Z,-1.57
2019-01-21T20:14:31.369Z,-1.57
2019-01-21T20:17:20.620Z,-1.59
2019-01-21T20:20:15.830Z,-1.70
2019-01-21T20:23:05.076Z,-1.70
2019-01-21T20:25:54.252Z,-1.66
2019-01-21T20:28:43.470Z,-1.66
2019-01-21T20:31:32.209Z,-1.79
2019-01-21T20:34:21.256Z,-1.83
2019-01-21T20:37:11.269Z,-1.83
2019-01-21T20:40:00.886Z,-1.79
2019-01-21T20:42:49.742Z,-1.78
2019-01-21T20:45:38.416Z,-1.78
2019-01-21T20:48:26.711Z,-1.78
2019-01-21T20:51:15.671Z,-1.81
2019-01-21T20:54:03.618Z,-1.81
2019-01-21T20:56:52.145Z,-1.78
2019-01-21T20:59:41.428Z,-1.83
2019-01-21T21:02:30.689Z,-1.89
2019-01-21T21:05:19.947Z,-1.79
2019-01-21T21:08:14.896Z,-1.79
2019-01-21T21:11:05.260Z,-1.80
2019-01-21T21:13:55.939Z,-1.79
2019-01-21T21:17:05.265Z,-1.79
2019-01-21T21:19:55.037Z,-1.79
2019-01-21T21:22:49.939Z,-1.84
2019-01-21T21:29:06.980Z,-1.85
2019-01-21T21:31:56.614Z,-1.83
2019-01-21T21:34:45.354Z,-1.86
2019-01-21T21:37:40.451Z,-1.86
2019-01-21T21:40:30.293Z,-1.79
2019-01-21T21:43:19.417Z,-1.75
2019-01-21T21:46:19.816Z,-1.75
2019-01-21T21:49:08.323Z,-1.82
2019-01-21T21:51:57.466Z,-1.77
2019-01-21T21:54:46.657Z,-1.74
2019-01-21T21:57:35.498Z,-1.75
2019-01-21T22:00:25.185Z,-1.71
2019-01-21T22:03:14.515Z,-1.71
2019-01-21T22:06:04.430Z,-1.76
2019-01-21T22:08:53.598Z,-1.76
2019-01-21T22:11:43.814Z,-1.71
2019-01-21T22:14:33.046Z,-1.71
2019-01-21T22:17:22.136Z,-1.75
2019-01-21T22:20:16.099Z,-1.70
2019-01-21T22:23:04.533Z,-1.76
2019-01-21T22:25:53.137Z,-1.83
2019-01-21T22:28:42.235Z,-1.79
2019-01-21T22:31:31.446Z,-1.87
2019-01-21T22:34:20.953Z,-1.90
2019-01-21T22:37:09.674Z,-1.84
2019-01-21T22:40:00.386Z,-1.88
2019-01-21T22:42:48.603Z,-1.88
2019-01-21T22:45:36.967Z,-1.88
2019-01-21T22:48:26.574Z,-1.86
2019-01-21T22:51:16.272Z,-1.86
2019-01-21T22:54:04.838Z,-1.80
2019-01-21T22:56:53.563Z,-1.79
2019-01-21T22:59:42.287Z,-1.82
2019-01-21T23:02:31.182Z,-1.79
2019-01-21T23:05:20.012Z,-1.81
2019-01-21T23:08:08.366Z,-1.80
2019-01-21T23:10:57.664Z,-1.80
2019-01-21T23:13:46.661Z,-1.99
2019-01-21T23:16:36.595Z,-1.96
2019-01-21T23:19:26.235Z,-1.88
2019-01-21T23:22:14.634Z,-1.88
2019-01-21T23:25:04.517Z,-1.80
2019-01-21T23:27:53.588Z,-1.80
2019-01-21T23:30:42.522Z,-1.81
2019-01-21T23:33:31.894Z,-1.78
2019-01-21T23:36:21.146Z,-1.63
2019-01-21T23:39:10.677Z,-1.68
2019-01-21T23:41:59.785Z,-1.69
2019-01-21T23:44:48.351Z,-1.69
2019-01-21T23:47:36.979Z,-1.77
2019-01-21T23:50:26.465Z,-1.77
2019-01-21T23:53:16.207Z,-1.76
2019-01-21T23:56:04.602Z,-1.74
2019-01-21T23:58:53.636Z,-1.75
